Time;durP1;ratioP1;P1;durP2;ratioP2;P2;SDS_P1;SDS_P2;PMS_P1;PMS_P2;Temp;Humidity;BMP_temperature;BMP_pressure;BME280_temperature;BME280_humidity;BME280_pressure;Samples;Min_cycle;Max_cycle;Signal;HPM_P1;HPM_P2
2021/04/19 00:00:58;;;;;;;79.32;39.20;;;8.30;99.90;;;;;;4880425;29;20056;-74
2021/04/19 00:03:25;;;;;;;79.18;39.67;;;8.30;99.90;;;;;;4875916;29;20125;-75
2021/04/19 00:05:52;;;;;;;89.20;41.22;;;8.30;99.90;;;;;;4874026;29;20428;-75
2021/04/19 00:08:18;;;;;;;92.20;42.60;;;8.30;99.90;;;;;;4889819;29;20071;-75
2021/04/19 00:10:44;;;;;;;74.35;36.70;;;8.30;99.90;;;;;;4875210;29;20065;-74
2021/04/19 00:13:11;;;;;;;89.03;40.35;;;8.30;99.90;;;;;;4877677;29;20519;-74
2021/04/19 00:15:38;;;;;;;84.30;40.63;;;8.20;99.90;;;;;;4895731;29;20147;-74
2021/04/19 00:18:05;;;;;;;93.70;40.78;;;8.20;99.90;;;;;;4885628;29;20072;-74
2021/04/19 00:20:31;;;;;;;89.82;40.10;;;8.20;99.90;;;;;;4874946;29;20103;-74
2021/04/19 00:22:58;;;;;;;99.78;42.78;;;8.20;99.90;;;;;;4890149;29;20053;-74
2021/04/19 00:25:25;;;;;;;98.40;42.80;;;8.10;99.90;;;;;;4883765;29;20060;-75
2021/04/19 00:27:52;;;;;;;99.63;42.95;;;8.10;99.90;;;;;;4889360;29;20059;-74
2021/04/19 00:30:19;;;;;;;83.72;39.65;;;8.20;99.90;;;;;;4873256;29;20080;-74
2021/04/19 00:32:46;;;;;;;96.82;41.97;;;8.20;99.90;;;;;;4906915;29;20412;-75
2021/04/19 00:35:13;;;;;;;87.28;41.03;;;8.40;99.90;;;;;;4872278;29;20151;-74
2021/04/19 00:37:39;;;;;;;89.13;39.75;;;8.30;99.90;;;;;;4903276;29;20216;-74
2021/04/19 00:40:10;;;;;;;83.47;41.65;;;8.20;99.90;;;;;;4907569;29;20432;-75
2021/04/19 00:42:37;;;;;;;108.82;45.75;;;8.30;99.90;;;;;;4875693;29;20053;-75
2021/04/19 00:45:06;;;;;;;89.97;41.60;;;8.40;99.90;;;;;;4875322;29;20501;-75
2021/04/19 00:47:33;;;;;;;88.55;39.33;;;8.50;99.90;;;;;;4874002;29;20059;-75
2021/04/19 00:50:00;;;;;;;83.55;38.90;;;8.60;99.90;;;;;;4872897;29;20301;-75
2021/04/19 00:52:28;;;;;;;89.30;39.42;;;8.40;99.90;;;;;;4873675;29;20469;-75
2021/04/19 00:54:57;;;;;;;76.20;39.40;;;8.40;99.90;;;;;;4875657;29;20524;-75
2021/04/19 00:57:33;;;;;;;88.65;38.78;;;8.30;99.90;;;;;;4875274;29;20059;-73
2021/04/19 01:00:00;;;;;;;93.40;41.38;;;8.30;99.90;;;;;;4889012;29;20508;-74
2021/04/19 01:02:26;;;;;;;84.18;39.28;;;8.30;99.90;;;;;;4888957;29;20136;-73
2021/04/19 01:04:54;;;;;;;85.95;41.53;;;8.30;99.90;;;;;;4860967;29;20081;-73
2021/04/19 01:07:21;;;;;;;91.00;41.33;;;8.30;99.90;;;;;;4882790;29;20159;-74
2021/04/19 01:09:48;;;;;;;101.20;43.88;;;8.20;99.90;;;;;;4875145;29;20349;-74
2021/04/19 01:12:15;;;;;;;105.13;47.08;;;8.10;99.90;;;;;;4860948;29;20052;-76
2021/04/19 01:14:43;;;;;;;100.05;44.72;;;8.00;99.90;;;;;;4876357;29;20056;-74
2021/04/19 01:17:10;;;;;;;87.40;39.58;;;7.90;99.90;;;;;;4877717;29;20052;-74
2021/04/19 01:19:38;;;;;;;93.80;41.20;;;7.80;99.90;;;;;;4897980;29;20121;-76
2021/04/19 01:22:07;;;;;;;98.15;43.78;;;7.70;99.90;;;;;;4892431;29;20140;-74
2021/04/19 01:24:33;;;;;;;96.57;43.47;;;7.60;99.90;;;;;;4892053;29;20079;-73
2021/04/19 01:27:00;;;;;;;97.20;43.20;;;7.70;99.90;;;;;;4891419;29;20059;-74
2021/04/19 01:29:28;;;;;;;89.88;42.30;;;7.60;99.90;;;;;;4877182;29;20084;-74
2021/04/19 01:31:55;;;;;;;90.20;43.03;;;7.70;99.90;;;;;;4872570;29;20133;-74
2021/04/19 01:34:22;;;;;;;99.82;45.58;;;7.70;99.90;;;;;;4885384;29;20052;-75
2021/04/19 01:36:50;;;;;;;101.90;46.03;;;7.70;99.90;;;;;;4906679;29;20055;-75
2021/04/19 01:39:18;;;;;;;101.63;44.38;;;7.80;99.90;;;;;;4880916;29;20431;-75
2021/04/19 01:41:45;;;;;;;110.18;46.20;;;7.80;99.90;;;;;;4900822;29;20159;-75
2021/04/19 01:44:14;;;;;;;119.15;46.85;;;7.90;99.90;;;;;;4854766;29;20048;-75
2021/04/19 01:46:41;;;;;;;96.78;45.08;;;7.90;99.90;;;;;;4872574;29;20060;-75
2021/04/19 01:49:17;;;;;;;103.80;44.13;;;7.90;99.90;;;;;;4881727;29;20088;-75
2021/04/19 01:51:47;;;;;;;100.80;42.88;;;7.90;99.90;;;;;;4889094;29;20056;-75
2021/04/19 01:54:14;;;;;;;104.15;44.50;;;8.00;99.90;;;;;;4890301;29;20048;-75
2021/04/19 01:56:41;;;;;;;98.35;43.40;;;8.00;99.90;;;;;;4906745;29;20087;-74
2021/04/19 01:59:09;;;;;;;96.47;41.97;;;7.90;99.90;;;;;;4891319;29;20060;-74
2021/04/19 02:01:48;;;;;;;106.28;44.55;;;7.90;99.90;;;;;;4860555;29;20048;-75
2021/04/19 02:04:20;;;;;;;94.38;43.90;;;7.80;99.90;;;;;;4875424;29;20088;-75
2021/04/19 02:07:08;;;;;;;89.57;41.42;;;7.80;99.90;;;;;;4890731;29;20065;-74
2021/04/19 02:09:53;;;;;;;96.97;44.00;;;8.00;99.90;;;;;;4906414;29;20053;-75
2021/04/19 02:12:28;;;;;;;96.65;40.88;;;7.90;99.90;;;;;;4876195;29;20185;-75
2021/04/19 02:15:04;;;;;;;94.20;41.78;;;7.90;99.90;;;;;;4864253;29;20051;-75
2021/04/19 02:17:47;;;;;;;112.13;43.17;;;8.00;99.90;;;;;;4883045;29;20109;-75
2021/04/19 02:20:46;;;;;;;105.65;45.05;;;8.00;99.90;;;;;;4887465;29;20041;-75
2021/04/19 02:23:33;;;;;;;118.82;44.70;;;7.90;99.90;;;;;;4872619;29;20064;-75
2021/04/19 02:26:22;;;;;;;111.88;44.20;;;8.10;99.90;;;;;;4878349;29;20041;-75
2021/04/19 02:29:10;;;;;;;117.40;45.45;;;8.10;99.90;;;;;;4880970;29;20060;-75
2021/04/19 02:31:43;;;;;;;118.90;45.70;;;8.10;99.90;;;;;;4889865;29;20060;-75
2021/04/19 02:34:15;;;;;;;108.20;45.42;;;8.00;99.90;;;;;;4890646;29;20049;-75
2021/04/19 02:36:53;;;;;;;108.35;43.72;;;7.90;99.90;;;;;;4874082;29;20689;-75
2021/04/19 02:39:20;;;;;;;118.45;46.67;;;7.90;99.90;;;;;;4872187;29;20479;-75
2021/04/19 02:41:51;;;;;;;125.70;48.75;;;7.80;99.90;;;;;;4898172;29;20057;-76
2021/04/19 02:44:23;;;;;;;127.45;48.08;;;7.80;99.90;;;;;;4874197;29;20064;-76
2021/04/19 02:47:05;;;;;;;125.50;46.65;;;7.80;99.90;;;;;;4886935;29;20067;-76
2021/04/19 02:49:36;;;;;;;148.10;47.85;;;7.70;99.90;;;;;;4885132;29;20063;-75
2021/04/19 02:52:05;;;;;;;144.65;48.95;;;7.70;99.90;;;;;;4871442;29;20068;-75
2021/04/19 02:54:34;;;;;;;131.85;47.55;;;7.60;99.90;;;;;;4881596;29;20068;-76
2021/04/19 02:57:01;;;;;;;134.50;48.42;;;7.50;99.90;;;;;;4869969;29;20075;-76
2021/04/19 02:59:30;;;;;;;120.93;47.63;;;7.60;99.90;;;;;;4856606;29;20052;-75
2021/04/19 03:02:07;;;;;;;128.35;47.33;;;7.60;99.90;;;;;;4871223;29;20088;-76
2021/04/19 03:04:39;;;;;;;158.23;51.03;;;7.50;99.90;;;;;;4874810;29;20057;-75
2021/04/19 03:07:13;;;;;;;173.70;52.67;;;7.50;99.90;;;;;;4861675;29;20086;-75
2021/04/19 03:09:50;;;;;;;198.50;55.72;;;7.40;99.90;;;;;;4859969;29;20139;-75
2021/04/19 03:12:19;;;;;;;163.38;52.92;;;7.30;99.90;;;;;;4891325;29;20056;-76
2021/04/19 03:14:56;;;;;;;204.55;57.75;;;7.30;99.90;;;;;;4878760;29;20052;-75
2021/04/19 03:17:26;;;;;;;148.02;52.45;;;7.30;99.90;;;;;;4915761;29;20654;-76
2021/04/19 03:20:10;;;;;;;179.68;56.30;;;7.10;99.90;;;;;;4907613;29;20064;-75
2021/04/19 03:22:49;;;;;;;135.35;48.97;;;7.20;99.90;;;;;;4874351;29;20045;-75
2021/04/19 03:25:22;;;;;;;157.15;53.30;;;7.30;99.90;;;;;;4875171;29;20517;-75
2021/04/19 03:27:52;;;;;;;157.55;54.95;;;7.50;99.90;;;;;;4875124;29;20063;-75
2021/04/19 03:30:19;;;;;;;136.48;52.08;;;7.60;99.90;;;;;;4890736;29;20136;-75
2021/04/19 03:32:53;;;;;;;157.82;53.58;;;7.50;99.90;;;;;;4892502;29;20052;-75
2021/04/19 03:35:31;;;;;;;167.25;58.13;;;7.60;99.90;;;;;;4877207;29;20059;-75
2021/04/19 03:38:01;;;;;;;147.27;52.70;;;7.60;99.90;;;;;;4883372;29;20045;-75
2021/04/19 03:40:32;;;;;;;139.43;52.17;;;7.50;99.90;;;;;;4899134;29;20055;-75
2021/04/19 03:43:09;;;;;;;127.45;47.17;;;7.60;99.90;;;;;;4893283;29;20053;-75
2021/04/19 03:45:42;;;;;;;131.23;47.05;;;7.50;99.90;;;;;;4891243;29;20045;-75
2021/04/19 03:48:41;;;;;;;121.35;49.45;;;7.50;99.90;;;;;;4877014;29;20053;-75
2021/04/19 03:51:18;;;;;;;122.95;52.15;;;7.40;99.90;;;;;;4882296;29;20045;-75
2021/04/19 03:53:54;;;;;;;127.30;50.88;;;7.40;99.90;;;;;;4873117;29;20521;-75
2021/04/19 03:56:25;;;;;;;117.22;48.53;;;7.50;99.90;;;;;;4865450;29;20064;-75
2021/04/19 03:59:05;;;;;;;120.97;49.17;;;7.50;99.90;;;;;;4893537;29;20112;-76
2021/04/19 04:01:41;;;;;;;120.05;49.30;;;7.50;99.90;;;;;;4893055;29;20401;-75
2021/04/19 04:04:10;;;;;;;114.72;48.78;;;7.60;99.90;;;;;;4892669;29;20076;-75
2021/04/19 04:06:50;;;;;;;118.13;47.45;;;7.60;99.90;;;;;;4892183;29;20063;-75
2021/04/19 04:09:22;;;;;;;124.07;48.72;;;7.60;99.90;;;;;;4907237;29;20535;-75
2021/04/19 04:11:48;;;;;;;124.20;48.67;;;7.60;99.90;;;;;;4908269;29;20519;-75
2021/04/19 04:14:30;;;;;;;125.97;49.33;;;7.60;99.90;;;;;;4905228;29;20063;-75
2021/04/19 04:16:56;;;;;;;131.40;51.30;;;7.50;99.90;;;;;;4873195;29;20128;-75
2021/04/19 04:19:46;;;;;;;129.13;50.05;;;7.50;99.90;;;;;;4879913;29;20537;-75
2021/04/19 04:22:14;;;;;;;139.02;51.65;;;7.50;99.90;;;;;;4880656;29;20191;-75
2021/04/19 04:24:45;;;;;;;126.03;51.05;;;7.40;99.90;;;;;;4858119;29;20053;-75
2021/04/19 04:27:16;;;;;;;141.15;53.35;;;7.40;99.90;;;;;;4870988;29;20064;-75
2021/04/19 04:29:43;;;;;;;154.10;57.33;;;7.50;99.90;;;;;;4872673;29;20055;-76
2021/04/19 04:32:30;;;;;;;154.32;56.95;;;7.50;99.90;;;;;;4871570;29;20167;-74
2021/04/19 04:35:09;;;;;;;150.32;54.72;;;7.40;99.90;;;;;;4875665;29;20052;-75
2021/04/19 04:37:38;;;;;;;166.52;55.30;;;7.30;99.90;;;;;;4891362;29;20056;-75
2021/04/19 04:40:14;;;;;;;146.80;54.40;;;7.10;99.90;;;;;;4862015;29;20061;-75
2021/04/19 04:42:45;;;;;;;154.50;54.70;;;7.10;99.90;;;;;;4905218;29;20044;-74
2021/04/19 04:45:12;;;;;;;113.32;46.53;;;7.00;99.90;;;;;;4862910;29;20059;-75
2021/04/19 04:47:51;;;;;;;117.53;47.22;;;7.10;99.90;;;;;;4882588;29;20445;-75
2021/04/19 04:50:24;;;;;;;98.43;42.38;;;7.10;99.90;;;;;;4860694;29;20053;-75
2021/04/19 04:53:03;;;;;;;107.05;46.60;;;7.00;99.90;;;;;;4881876;29;20061;-75
2021/04/19 04:55:31;;;;;;;102.85;46.20;;;7.00;99.90;;;;;;4856365;29;20061;-75
2021/04/19 04:57:59;;;;;;;113.38;46.30;;;7.00;99.90;;;;;;4872323;29;20057;-75
2021/04/19 05:00:26;;;;;;;105.47;47.38;;;6.90;99.90;;;;;;4892600;29;20057;-75
2021/04/19 05:02:54;;;;;;;109.68;46.38;;;7.00;99.90;;;;;;4858364;29;20305;-75
2021/04/19 05:05:21;;;;;;;103.20;46.33;;;7.10;99.90;;;;;;4872252;29;20109;-75
2021/04/19 05:07:48;;;;;;;107.50;47.15;;;7.20;99.90;;;;;;4872373;29;20053;-75
2021/04/19 05:10:15;;;;;;;98.82;45.33;;;7.20;99.90;;;;;;4856986;29;20109;-75
2021/04/19 05:12:46;;;;;;;101.97;44.67;;;7.20;99.90;;;;;;4887546;29;20188;-75
2021/04/19 05:15:13;;;;;;;100.35;43.25;;;7.20;99.90;;;;;;4882294;29;20060;-75
2021/04/19 05:17:44;;;;;;;106.90;47.08;;;7.20;99.90;;;;;;4875685;29;20056;-76
2021/04/19 05:20:13;;;;;;;103.78;48.10;;;7.10;99.90;;;;;;4874556;29;20051;-75
2021/04/19 05:22:42;;;;;;;106.95;49.45;;;7.10;99.90;;;;;;4886475;29;20071;-76
2021/04/19 05:25:10;;;;;;;99.80;47.83;;;7.10;99.90;;;;;;4887077;29;20106;-76
2021/04/19 05:27:37;;;;;;;109.13;48.42;;;7.20;99.90;;;;;;4856413;29;20140;-75
2021/04/19 05:30:05;;;;;;;103.07;48.40;;;7.30;99.90;;;;;;4887334;29;20049;-74
2021/04/19 05:32:31;;;;;;;110.22;50.85;;;7.30;99.90;;;;;;4872161;29;20539;-75
2021/04/19 05:35:00;;;;;;;104.88;48.45;;;7.30;99.90;;;;;;4900087;29;20175;-75
2021/04/19 05:37:29;;;;;;;107.18;51.63;;;7.40;99.90;;;;;;4887128;29;20460;-74
2021/04/19 05:39:55;;;;;;;96.30;48.13;;;7.50;99.90;;;;;;4890330;29;20083;-74
2021/04/19 05:42:22;;;;;;;97.00;47.50;;;7.50;99.90;;;;;;4890208;29;20060;-74
2021/04/19 05:44:49;;;;;;;91.20;47.95;;;7.60;99.90;;;;;;4898169;29;20057;-74
2021/04/19 05:47:18;;;;;;;103.22;49.83;;;7.60;99.90;;;;;;4873808;29;20076;-74
2021/04/19 05:49:45;;;;;;;91.15;46.05;;;7.70;99.90;;;;;;4900103;29;20068;-75
2021/04/19 05:52:13;;;;;;;92.43;47.58;;;7.80;99.90;;;;;;4892169;29;20059;-75
2021/04/19 05:54:41;;;;;;;87.00;45.30;;;7.80;99.90;;;;;;4890838;29;20072;-75
2021/04/19 05:57:34;;;;;;;103.35;49.13;;;8.00;99.90;;;;;;4889949;29;20661;-75
2021/04/19 06:00:13;;;;;;;98.70;48.15;;;8.20;99.90;;;;;;4889304;29;20053;-75
2021/04/19 06:03:08;;;;;;;95.38;48.03;;;8.40;99.90;;;;;;4874356;29;20057;-74
2021/04/19 06:05:40;;;;;;;78.10;42.78;;;8.70;99.90;;;;;;4891367;29;20092;-75
2021/04/19 06:08:35;;;;;;;63.20;37.75;;;8.90;99.90;;;;;;4874226;29;20052;-75
2021/04/19 06:11:20;;;;;;;70.60;41.25;;;8.60;99.90;;;;;;4872229;29;20565;-75
2021/04/19 06:14:10;;;;;;;78.40;41.25;;;8.60;99.90;;;;;;4886865;29;20062;-75
2021/04/19 06:16:38;;;;;;;60.13;37.30;;;8.50;99.90;;;;;;4885989;29;20053;-75
2021/04/19 06:19:09;;;;;;;57.22;35.33;;;8.50;99.90;;;;;;4882200;29;20132;-74
2021/04/19 06:21:35;;;;;;;63.55;35.92;;;8.50;99.90;;;;;;4886332;29;20107;-75
2021/04/19 06:24:03;;;;;;;60.40;36.40;;;8.50;99.90;;;;;;4867821;29;20113;-75
2021/04/19 06:26:32;;;;;;;58.30;34.97;;;8.60;99.90;;;;;;4866535;29;20060;-75
2021/04/19 06:28:59;;;;;;;53.67;35.72;;;8.80;99.90;;;;;;4857622;29;20500;-75
2021/04/19 06:31:26;;;;;;;47.10;31.63;;;8.80;99.90;;;;;;4873724;29;20460;-76
2021/04/19 06:34:05;;;;;;;48.50;30.70;;;8.70;99.90;;;;;;4870913;29;20041;-77
2021/04/19 06:36:33;;;;;;;43.47;30.35;;;8.70;99.90;;;;;;4870411;29;20057;-75
2021/04/19 06:39:00;;;;;;;45.70;30.77;;;8.60;99.90;;;;;;4873055;29;20045;-75
2021/04/19 06:41:28;;;;;;;50.58;32.30;;;8.60;99.90;;;;;;4878404;29;20040;-75
2021/04/19 06:43:56;;;;;;;47.45;31.88;;;8.60;99.90;;;;;;4892679;29;20518;-77
2021/04/19 06:46:29;;;;;;;54.22;34.25;;;8.70;99.90;;;;;;4901303;29;20114;-75
2021/04/19 06:48:56;;;;;;;61.97;36.15;;;8.60;99.90;;;;;;4882773;29;20136;-74
2021/04/19 06:51:24;;;;;;;48.03;32.33;;;8.50;99.90;;;;;;4882866;29;20116;-76
2021/04/19 06:53:54;;;;;;;52.05;32.78;;;8.60;99.90;;;;;;4882384;29;20048;-74
2021/04/19 06:56:27;;;;;;;55.42;34.20;;;8.60;99.90;;;;;;4895921;29;20144;-76
2021/04/19 06:58:56;;;;;;;55.00;34.13;;;8.70;99.90;;;;;;4905226;29;20289;-75
2021/04/19 07:01:29;;;;;;;56.60;34.53;;;8.70;99.90;;;;;;4904349;29;20045;-75
2021/04/19 07:04:00;;;;;;;46.50;27.70;;;8.80;99.90;;;;;;4884171;29;20046;-74
2021/04/19 07:06:32;;;;;;;49.90;29.80;;;8.60;99.90;;;;;;4904592;29;20049;-74
2021/04/19 07:09:21;;;;;;;55.70;33.00;;;8.50;99.90;;;;;;4893349;29;20067;-74
2021/04/19 07:11:53;;;;;;;53.92;32.97;;;8.40;99.90;;;;;;4908334;29;20060;-75
2021/04/19 07:14:20;;;;;;;56.05;33.50;;;8.40;99.90;;;;;;4892266;29;20354;-76
2021/04/19 07:16:47;;;;;;;54.25;33.28;;;8.50;99.90;;;;;;4872289;29;20041;-77
2021/04/19 07:19:15;;;;;;;58.00;32.60;;;8.40;99.90;;;;;;4888222;29;20088;-76
2021/04/19 07:21:42;;;;;;;51.75;31.13;;;8.40;99.90;;;;;;4894488;29;20044;-76
2021/04/19 07:24:09;;;;;;;53.80;33.08;;;8.30;99.90;;;;;;4877486;29;20074;-75
2021/04/19 07:26:36;;;;;;;52.00;32.65;;;8.30;99.90;;;;;;4892753;29;20059;-75
2021/04/19 07:29:04;;;;;;;55.95;34.83;;;8.20;99.90;;;;;;4888175;29;20524;-76
2021/04/19 07:31:51;;;;;;;57.00;35.05;;;8.30;99.90;;;;;;4877370;29;20060;-75
2021/04/19 07:34:29;;;;;;;59.20;35.58;;;8.40;99.90;;;;;;4892082;29;20052;-75
2021/04/19 07:37:04;;;;;;;57.60;36.17;;;8.50;99.90;;;;;;4896446;29;20960;-76
2021/04/19 07:39:33;;;;;;;58.83;34.88;;;8.40;99.90;;;;;;4870746;29;20460;-75
2021/04/19 07:42:02;;;;;;;58.53;34.65;;;8.30;99.90;;;;;;4888957;29;20104;-76
2021/04/19 07:44:43;;;;;;;60.08;35.80;;;8.30;99.90;;;;;;4886147;29;20057;-75
2021/04/19 07:47:41;;;;;;;59.60;32.78;;;8.30;99.90;;;;;;4882304;29;20063;-75
2021/04/19 07:50:18;;;;;;;55.28;32.72;;;8.30;99.90;;;;;;4884715;29;20238;-75
2021/04/19 07:53:05;;;;;;;53.20;32.60;;;8.40;99.90;;;;;;4888582;29;20157;-75
2021/04/19 07:55:36;;;;;;;56.13;31.88;;;8.30;99.90;;;;;;4868047;29;20060;-75
2021/04/19 07:58:18;;;;;;;46.92;29.75;;;8.30;99.90;;;;;;4874441;29;20135;-76
2021/04/19 08:00:45;;;;;;;47.65;30.15;;;8.20;99.90;;;;;;4858961;29;20505;-75
2021/04/19 08:03:15;;;;;;;48.33;29.70;;;8.10;99.90;;;;;;4891013;29;20100;-75
2021/04/19 08:05:52;;;;;;;49.08;30.20;;;8.00;99.90;;;;;;4885989;29;20045;-75
2021/04/19 08:08:30;;;;;;;47.97;27.90;;;8.00;99.90;;;;;;4905657;29;20120;-75
2021/04/19 08:11:07;;;;;;;42.58;28.48;;;8.10;99.90;;;;;;4876702;29;20056;-74
2021/04/19 08:13:33;;;;;;;46.35;28.80;;;8.30;99.90;;;;;;4872291;29;20065;-75
2021/04/19 08:16:19;;;;;;;42.70;26.75;;;8.50;99.90;;;;;;4873182;29;20041;-75
2021/04/19 08:18:50;;;;;;;46.85;28.05;;;8.40;99.90;;;;;;4884396;29;20061;-75
2021/04/19 08:21:26;;;;;;;41.40;26.05;;;8.60;99.90;;;;;;4885500;29;20060;-75
2021/04/19 08:23:52;;;;;;;41.90;26.45;;;8.60;99.90;;;;;;4889363;29;20464;-75
2021/04/19 08:26:19;;;;;;;44.80;27.77;;;8.80;99.90;;;;;;4874032;29;20057;-75
2021/04/19 08:28:48;;;;;;;33.95;21.90;;;9.00;99.90;;;;;;4889199;29;20060;-74
2021/04/19 08:31:16;;;;;;;31.73;22.70;;;9.10;99.90;;;;;;4888734;29;20052;-75
2021/04/19 08:33:44;;;;;;;31.85;23.20;;;9.20;99.90;;;;;;4892481;29;20057;-75
2021/04/19 08:36:14;;;;;;;27.98;20.38;;;9.10;99.90;;;;;;4890273;29;20046;-75
2021/04/19 08:38:41;;;;;;;31.42;22.60;;;9.00;99.90;;;;;;4892805;29;20041;-74
2021/04/19 08:41:10;;;;;;;29.30;20.52;;;8.90;99.90;;;;;;4876309;29;20062;-74
2021/04/19 08:43:39;;;;;;;26.48;19.48;;;9.10;99.90;;;;;;4887776;29;20052;-74
2021/04/19 08:46:08;;;;;;;30.23;22.10;;;9.10;99.90;;;;;;4856114;29;20534;-75
2021/04/19 08:48:35;;;;;;;31.77;21.02;;;9.20;99.90;;;;;;4879723;29;20128;-75
2021/04/19 08:51:04;;;;;;;29.30;20.58;;;9.50;99.90;;;;;;4877219;29;20044;-76
2021/04/19 08:53:31;;;;;;;31.55;21.98;;;9.60;99.90;;;;;;4891580;29;20059;-75
2021/04/19 08:56:02;;;;;;;30.08;21.60;;;9.30;99.90;;;;;;4890620;29;20055;-74
2021/04/19 08:58:30;;;;;;;30.20;21.20;;;9.50;99.90;;;;;;4876690;29;20500;-74
2021/04/19 09:01:00;;;;;;;27.33;20.70;;;9.80;99.90;;;;;;4891118;29;20063;-74
2021/04/19 09:03:27;;;;;;;29.52;20.33;;;9.90;99.90;;;;;;4892444;29;20072;-75
2021/04/19 09:05:54;;;;;;;26.83;21.40;;;9.70;99.90;;;;;;4875637;29;20044;-74
2021/04/19 09:08:21;;;;;;;27.98;21.17;;;9.80;99.90;;;;;;4890544;29;20056;-75
2021/04/19 09:11:05;;;;;;;26.58;20.77;;;10.00;99.90;;;;;;4891120;29;20488;-75
2021/04/19 09:13:42;;;;;;;27.92;22.25;;;10.00;99.90;;;;;;4890529;29;20350;-74
2021/04/19 09:16:36;;;;;;;24.05;19.13;;;10.20;99.90;;;;;;4890967;29;20049;-75
2021/04/19 09:19:04;;;;;;;26.83;20.15;;;9.90;99.90;;;;;;4880610;29;20057;-74
2021/04/19 09:21:35;;;;;;;28.50;19.60;;;9.60;99.90;;;;;;4900058;29;20394;-74
2021/04/19 09:24:03;;;;;;;24.33;19.20;;;9.70;99.90;;;;;;4899224;29;20156;-77
2021/04/19 09:26:46;;;;;;;26.73;19.75;;;10.10;99.90;;;;;;4906613;29;20084;-76
2021/04/19 09:29:35;;;;;;;29.90;22.10;;;10.10;99.90;;;;;;4891753;29;20056;-76
2021/04/19 09:32:05;;;;;;;25.20;20.27;;;10.20;99.90;;;;;;4900162;29;20579;-75
2021/04/19 09:34:40;;;;;;;23.85;18.67;;;9.90;99.90;;;;;;4888237;29;20053;-76
2021/04/19 09:37:09;;;;;;;24.15;19.67;;;10.00;99.90;;;;;;4871681;29;20055;-75
2021/04/19 09:39:42;;;;;;;21.27;17.80;;;10.00;99.90;;;;;;4860972;29;20500;-75
2021/04/19 09:42:09;;;;;;;24.63;19.02;;;10.00;99.90;;;;;;4872416;29;20588;-76
2021/04/19 09:44:49;;;;;;;22.77;17.30;;;10.30;99.90;;;;;;4888809;29;20511;-76
2021/04/19 09:47:48;;;;;;;20.83;16.05;;;10.60;99.90;;;;;;4874465;29;20052;-76
2021/04/19 09:50:23;;;;;;;18.70;15.55;;;10.50;99.90;;;;;;4882815;29;20439;-76
2021/04/19 09:52:50;;;;;;;;;;;10.90;99.90;;;;;;4887911;29;20398;-75
2021/04/19 09:55:18;;;;;;;17.98;15.35;;;10.90;99.90;;;;;;4870728;29;19959;-76
2021/04/19 09:57:45;;;;;;;18.90;16.90;;;11.30;99.90;;;;;;4872372;29;20048;-75
2021/04/19 10:00:13;;;;;;;19.05;17.05;;;11.30;99.90;;;;;;4887571;29;20109;-76
2021/04/19 10:02:41;;;;;;;20.23;16.65;;;11.30;99.90;;;;;;4873640;29;20053;-76
2021/04/19 10:05:12;;;;;;;19.15;16.77;;;11.20;99.90;;;;;;4872578;29;20049;-76
2021/04/19 10:07:44;;;;;;;;;;;11.10;99.90;;;;;;4872136;29;20053;-76
2021/04/19 10:10:12;;;;;;;17.60;15.93;;;11.10;99.90;;;;;;4895303;29;20018;-76
2021/04/19 10:12:46;;;;;;;19.50;17.58;;;11.00;99.90;;;;;;4854425;29;20076;-77
2021/04/19 10:15:21;;;;;;;19.23;15.20;;;11.20;99.90;;;;;;4872672;29;20121;-76
2021/04/19 10:17:49;;;;;;;18.42;16.63;;;11.20;99.90;;;;;;4892745;29;20056;-76
2021/04/19 10:20:25;;;;;;;17.77;15.88;;;11.00;99.90;;;;;;4898113;29;20045;-76
2021/04/19 10:23:11;;;;;;;21.15;16.73;;;11.00;99.90;;;;;;4857309;29;20075;-75
2021/04/19 10:25:46;;;;;;;18.88;16.98;;;10.60;99.90;;;;;;4856381;29;20045;-76
2021/04/19 10:28:24;;;;;;;18.95;16.95;;;10.60;99.90;;;;;;4889012;29;20041;-77
2021/04/19 10:30:51;;;;;;;22.00;17.55;;;10.50;99.90;;;;;;4871695;29;20053;-76
2021/04/19 10:33:26;;;;;;;19.27;17.27;;;10.50;99.90;;;;;;4872167;29;20435;-76
2021/04/19 10:35:52;;;;;;;20.05;17.92;;;10.30;99.90;;;;;;4872577;29;20059;-77
2021/04/19 10:38:27;;;;;;;19.38;17.27;;;10.70;99.90;;;;;;4855717;29;20206;-76
2021/04/19 10:41:01;;;;;;;20.67;18.15;;;11.00;99.90;;;;;;4886743;29;20072;-76
2021/04/19 10:43:27;;;;;;;20.98;18.73;;;11.40;99.90;;;;;;4876918;29;20060;-77
2021/04/19 10:45:54;;;;;;;20.25;18.15;;;11.50;99.90;;;;;;4888325;29;20048;-76
2021/04/19 10:48:23;;;;;;;20.45;18.45;;;11.50;99.90;;;;;;4895529;29;20078;-75
2021/04/19 10:50:51;;;;;;;20.88;18.88;;;11.50;99.90;;;;;;4886051;29;20513;-75
2021/04/19 10:53:36;;;;;;;21.67;19.42;;;11.60;99.90;;;;;;4892682;29;20087;-75
2021/04/19 10:56:06;;;;;;;22.17;19.92;;;11.60;99.90;;;;;;4871066;29;20389;-76
2021/04/19 10:58:35;;;;;;;21.35;19.45;;;11.70;99.90;;;;;;4871871;29;20529;-76
2021/04/19 11:01:03;;;;;;;21.90;19.80;;;11.70;99.90;;;;;;4861508;29;20128;-75
2021/04/19 11:03:35;;;;;;;22.60;20.23;;;11.50;99.90;;;;;;4895657;29;20287;-75
2021/04/19 11:06:11;;;;;;;23.52;21.20;;;11.60;99.90;;;;;;4904969;29;20051;-76
2021/04/19 11:08:57;;;;;;;22.27;20.27;;;11.70;99.90;;;;;;4905794;29;20056;-76
2021/04/19 11:11:30;;;;;;;23.25;21.20;;;11.60;99.90;;;;;;4905424;29;20124;-75
2021/04/19 11:14:12;;;;;;;22.73;20.67;;;11.30;99.90;;;;;;4905820;29;20115;-76
2021/04/19 11:17:02;;;;;;;24.08;21.88;;;11.10;99.90;;;;;;4872110;29;20072;-76
2021/04/19 11:19:33;;;;;;;22.23;20.13;;;11.10;99.90;;;;;;4886799;29;20061;-76
2021/04/19 11:22:34;;;;;;;22.92;20.80;;;11.30;99.90;;;;;;4886751;29;20505;-76
2021/04/19 11:25:24;;;;;;;22.00;19.83;;;11.10;99.90;;;;;;4888954;29;20135;-76
2021/04/19 11:28:12;;;;;;;22.75;20.55;;;11.10;99.90;;;;;;4874037;29;20063;-76
2021/04/19 11:30:38;;;;;;;20.92;18.75;;;10.90;99.90;;;;;;4883372;29;20057;-76
2021/04/19 11:33:11;;;;;;;21.58;19.58;;;11.10;99.90;;;;;;4881017;29;20056;-77
2021/04/19 11:35:46;;;;;;;21.65;19.65;;;11.20;99.90;;;;;;4908476;29;20045;-77
2021/04/19 11:38:20;;;;;;;21.77;19.33;;;11.40;99.90;;;;;;4892656;29;20060;-76
2021/04/19 11:40:49;;;;;;;21.65;19.70;;;11.50;99.90;;;;;;4894445;29;20148;-76
2021/04/19 11:43:22;;;;;;;22.10;20.02;;;11.80;99.90;;;;;;4888847;29;20068;-76
2021/04/19 11:45:55;;;;;;;20.80;19.00;;;11.60;99.90;;;;;;4872806;29;20627;-76
2021/04/19 11:48:21;;;;;;;20.70;18.83;;;11.40;99.90;;;;;;4876909;29;20056;-75
2021/04/19 11:50:48;;;;;;;22.38;20.38;;;11.60;99.90;;;;;;4859059;29;20680;-76
2021/04/19 11:53:27;;;;;;;20.95;18.88;;;11.70;99.90;;;;;;4859315;29;20053;-76
2021/04/19 11:55:55;;;;;;;20.77;18.90;;;11.90;99.90;;;;;;4857062;29;20041;-76
2021/04/19 11:58:37;;;;;;;20.80;18.70;;;12.10;99.90;;;;;;4874488;29;20106;-76
2021/04/19 12:01:05;;;;;;;20.08;18.23;;;12.20;99.90;;;;;;4889405;29;20144;-77
2021/04/19 12:03:37;;;;;;;19.33;17.77;;;12.10;99.90;;;;;;4890923;29;20337;-76
2021/04/19 12:06:06;;;;;;;20.10;18.30;;;12.20;99.90;;;;;;4875482;29;20084;-76
2021/04/19 12:08:33;;;;;;;20.25;18.27;;;12.00;99.90;;;;;;4858260;29;20063;-76
2021/04/19 12:11:00;;;;;;;19.75;17.98;;;12.00;99.90;;;;;;4871925;29;20060;-73
2021/04/19 12:13:26;;;;;;;21.48;19.55;;;11.90;99.90;;;;;;4872722;29;20105;-75
2021/04/19 12:15:53;;;;;;;21.73;19.73;;;11.90;99.90;;;;;;4857638;29;20072;-76
2021/04/19 12:18:21;;;;;;;21.67;19.67;;;11.90;99.90;;;;;;4881732;29;20131;-75
2021/04/19 12:20:50;;;;;;;20.48;18.58;;;12.40;99.90;;;;;;4857938;29;20045;-75
2021/04/19 12:23:18;;;;;;;20.98;19.10;;;12.50;99.90;;;;;;4882193;29;20044;-74
2021/04/19 12:25:46;;;;;;;20.52;18.63;;;12.80;99.90;;;;;;4885167;29;20059;-74
2021/04/19 12:28:13;;;;;;;21.50;19.50;;;12.60;99.90;;;;;;4888693;29;20081;-74
2021/04/19 12:30:39;;;;;;;20.20;18.27;;;12.40;99.90;;;;;;4894482;29;20057;-75
2021/04/19 12:33:06;;;;;;;20.00;18.20;;;12.50;99.90;;;;;;4889295;29;20061;-75
2021/04/19 12:35:33;;;;;;;20.23;18.65;;;12.50;99.90;;;;;;4887508;29;20052;-74
2021/04/19 12:37:59;;;;;;;21.90;20.23;;;12.50;99.90;;;;;;4893605;29;20101;-75
2021/04/19 12:40:28;;;;;;;21.02;19.20;;;12.90;99.90;;;;;;4888138;29;20054;-75
2021/04/19 12:42:57;;;;;;;19.48;18.00;;;13.20;99.90;;;;;;4889516;29;20071;-75
2021/04/19 12:45:31;;;;;;;20.25;18.55;;;13.20;99.90;;;;;;4894043;29;20049;-75
2021/04/19 12:48:03;;;;;;;20.50;18.58;;;13.20;99.90;;;;;;4888242;29;20060;-74
2021/04/19 12:50:30;;;;;;;21.65;19.95;;;13.10;99.90;;;;;;4871458;29;20071;-74
2021/04/19 12:53:07;;;;;;;20.38;18.73;;;13.20;99.90;;;;;;4888697;29;20076;-74
2021/04/19 12:55:41;;;;;;;21.27;19.63;;;13.70;99.90;;;;;;4872437;29;20048;-74